LFLB Informações do Aeroporto

Informações da Pista
Pista 18 Comprimento 6628 ft Largura 148 ft
Elevação 769 ft Limite 755 ft Heading 176
Pista 36 Comprimento 6628 ft Largura 148 ft
Elevação 778 ft Limite 460 ft Heading 356
Frequências do Aeroporto
Tipo APP Nome CHAMBERY A Frequência 123.7 MHZ
Tipo ATIS Nome CHAMBERY A Frequência 124.575 MHZ
Tipo TWR Nome CHAMBERY T Frequência 118.3 MHZ
Navaids do Aeroporto
Informações meteorológicas do aeroporto e NOTAM
ADDS - METARS form results

(1244 UTC 05 August 2020)
Data provider http://aviationweather.gov/metar/data/
 
METAR text: LFLB 051230Z AUTO 34008KT CAVOK 25/12 Q1016 NOSIG
Conditions at: LFLB (CHAMBERY/AIX BAI, FR) observed 1230 UTC 05 August 2020
Temperature: 25.0°C (77°F)
Dewpoint: 12.0°C (54°F) [RH = 44%]
Pressure (altimeter): 30.00 inches Hg (1016.0 mb)
Winds: from the NNW (340 degrees) at 9 MPH (8 knots; 4.1 m/s)
Visibility: 6 or more miles (10+ km)
Ceiling: ceiling and visibility are OK
Clouds: unknown
Weather: no significant weather observed at this time

METAR text: LFLB 051200Z AUTO 35006KT 310V040 CAVOK 24/12 Q1016 NOSIG
Conditions at: LFLB (CHAMBERY/AIX BAI, FR) observed 1200 UTC 05 August 2020
Temperature: 24.0°C (75°F)
Dewpoint: 12.0°C (54°F) [RH = 47%]
Pressure (altimeter): 30.00 inches Hg (1016.0 mb)
Winds: from the N (350 degrees) at 7 MPH (6 knots; 3.1 m/s)
Visibility: 6 or more miles (10+ km)
Ceiling: ceiling and visibility are OK
Clouds: unknown
Weather: no significant weather observed at this time

Forecast for: LFLB (CHAMBERY/AIX BAI, FR)
Text: TAF LFLB 051100Z 0512/0612 36010KT CAVOK
Forecast period: 1200 UTC 05 August 2020 to 1200 UTC 06 August 2020
Forecast type: FROM: standard forecast or significant change
Winds: from the N (360 degrees) at 12 MPH (10 knots; 5.1 m/s)
Visibility: 6 or more miles 10+ km)
Ceiling: unknown
Clouds: missing
Weather: NSW  (no significant weather)
Text: TEMPO 0603/0606 VRB03KT
Forecast period: 0300 to 0600 UTC 06 August 2020
Forecast type: TEMPORARY: The following changes expected for less than half the time period
Winds: variable direction winds at 3 MPH (3 knots; 1.5 m/s)
Visibility: missing
Ceiling: unknown
Clouds: missing
Weather: no significant weather forecast for this period